^^
Station Historical Data
Daily Summary for August 13, 2017 Units:  Metric    English   Both
« Previous Day
Next Day »
Daily Weekly Monthly Yearly Custom
  High: Low: Average:
Temperature: 23.9 °C 3.9 °C 12.9 °C
Dew Point: 1.9 °C -2.2 °C 0.4 °C
Humidity: 70% 23% 46%
Wind Speed: 13km/h 0km/h 2.7km/h
Wind Gust: 17.7km/h - -
Wind- - SW
Pressure: 1023.9 hPa 1019.2 hPa -
Precipitation: 0 mm    
Historical Graphs
 
 
Tabular Data for August 13, 2017
Time Temperature Dew Point Pressure Wind Wind Speed Wind Gust Humidity Rainfall Rate (Hourly) solar Conditions
00:01 11.4 °C 1.1 °C 1021.9 hPa SW 13 km/h 17.7 km/h 49% 0 mm 0.0 W/m2
00:06 11.3 °C 1.2 °C 1021.9 hPa SW 13 km/h 16.1 km/h 50% 0 mm 0.0 W/m2
00:11 11.1 °C 1.3 °C 1021.9 hPa SW 9.7 km/h 14.5 km/h 51% 0 mm 0.0 W/m2
00:16 10.9 °C 1.2 °C 1021.9 hPa SW 9.7 km/h 11.3 km/h 51% 0 mm 0.0 W/m2
00:21 10.7 °C 1.2 °C 1021.9 hPa SW 7.9 km/h 9.7 km/h 52% 0 mm 0.0 W/m2
00:26 10.4 °C 1 °C 1022.2 hPa SW 6.4 km/h 9.7 km/h 52% 0 mm 0.0 W/m2
00:31 10.2 °C 1 °C 1021.9 hPa SW 9.7 km/h 9.7 km/h 53% 0 mm 0.0 W/m2
00:36 10.1 °C 1.2 °C 1022.2 hPa SW 11.1 km/h 11.3 km/h 54% 0 mm 0.0 W/m2
00:46 10 °C 1.1 °C 1022.2 hPa SW 7.9 km/h 9.7 km/h 54% 0 mm 0.0 W/m2
00:51 9.9 °C 1 °C 1022.2 hPa SW 7.9 km/h 8 km/h 54% 0 mm 0.0 W/m2
00:56 9.7 °C 1.1 °C 1022.2 hPa SW 6.4 km/h 8 km/h 55% 0 mm 0.0 W/m2
01:01 9.6 °C 1 °C 1022.2 hPa SW 4.7 km/h 6.4 km/h 55% 0 mm 0.0 W/m2
01:07 9.4 °C 0.8 °C 1022.2 hPa Calm     55% 0 mm 0.0 W/m2
01:12 9.3 °C 1 °C 1022.2 hPa Calm     56% 0 mm 0.0 W/m2
01:17 9.1 °C 0.8 °C 1022.2 hPa Calm     56% 0 mm 0.0 W/m2
01:22 9 °C 0.9 °C 1022.2 hPa Calm     57% 0 mm 0.0 W/m2
01:27 8.9 °C 1.1 °C 1021.9 hPa SW 7.9 km/h 9.7 km/h 58% 0 mm 0.0 W/m2
01:32 9 °C 1.4 °C 1021.9 hPa SW 9.7 km/h 12.9 km/h 59% 0 mm 0.0 W/m2
01:37 9.2 °C 1.6 °C 1021.9 hPa SW 9.7 km/h 12.9 km/h 59% 0 mm 0.0 W/m2
01:42 9.4 °C 1.6 °C 1021.9 hPa SW 9.7 km/h 9.7 km/h 58% 0 mm 0.0 W/m2
01:47 9.3 °C 1.5 °C 1021.6 hPa SW 7.9 km/h 11.3 km/h 58% 0 mm 0.0 W/m2
01:52 9.3 °C 1.5 °C 1021.6 hPa SW 7.9 km/h 9.7 km/h 58% 0 mm 0.0 W/m2
02:02 9.3 °C 1.7 °C 1021.6 hPa SW 9.7 km/h 9.7 km/h 59% 0 mm 0.0 W/m2
02:07 9.4 °C 1.6 °C 1021.6 hPa SW 11.1 km/h 14.5 km/h 58% 0 mm 0.0 W/m2
02:12 9.5 °C 1.6 °C 1021.6 hPa SW 13 km/h 16.1 km/h 58% 0 mm 0.0 W/m2
02:18 9.6 °C 1.5 °C 1021.6 hPa SW 13 km/h 14.5 km/h 57% 0 mm 0.0 W/m2
02:28 9.6 °C 1.5 °C 1021.6 hPa SW 9.7 km/h 14.5 km/h 57% 0 mm 0.0 W/m2
02:38 9.4 °C 1.1 °C 1021.6 hPa SW 11.1 km/h 14.5 km/h 56% 0 mm 0.0 W/m2
02:43 9.4 °C 0.8 °C 1021.6 hPa SW 7.9 km/h 12.9 km/h 55% 0 mm 0.0 W/m2
02:48 9.3 °C 1 °C 1021.6 hPa SW 11.1 km/h 12.9 km/h 56% 0 mm 0.0 W/m2
02:53 9.1 °C 0.8 °C 1021.6 hPa SW 13 km/h 13 km/h 56% 0 mm 0.0 W/m2
02:58 8.9 °C 0.8 °C 1021.6 hPa SW 11.1 km/h 12.9 km/h 57% 0 mm 0.0 W/m2
03:08 8.5 °C 0.7 °C 1021.2 hPa SW 7.9 km/h 9.7 km/h 58% 0 mm 0.0 W/m2
03:13 8.3 °C 0.5 °C 1021.6 hPa SW 6.4 km/h 8 km/h 58% 0 mm 0.0 W/m2
03:23 7.8 °C 0 °C 1021.6 hPa SW 4.7 km/h 6.4 km/h 58% 0 mm 0.0 W/m2
03:28 7.5 °C -0.2 °C 1021.6 hPa SW 3.2 km/h 4.8 km/h 58% 0 mm 0.0 W/m2
03:38 7 °C -0.2 °C 1021.6 hPa SW 3.2 km/h 4.8 km/h 60% 0 mm 0.0 W/m2
03:43 6.8 °C -0.2 °C 1021.6 hPa SW 4.7 km/h 4.8 km/h 61% 0 mm 0.0 W/m2
03:48 6.7 °C -0.3 °C 1021.6 hPa SW 4.7 km/h 6.4 km/h 61% 0 mm 0.0 W/m2
03:58 6.3 °C -0.7 °C 1021.6 hPa SW 4.7 km/h 8 km/h 61% 0 mm 0.0 W/m2
04:03 6.2 °C -0.5 °C 1021.6 hPa SW 6.4 km/h 8 km/h 62% 0 mm 0.0 W/m2
04:08 6.1 °C -0.4 °C 1021.6 hPa SW 4.7 km/h 6.4 km/h 63% 0 mm 0.0 W/m2
04:19 6 °C -0.1 °C 1021.6 hPa SW 7.9 km/h 9.7 km/h 65% 0 mm 0.0 W/m2
04:24 6.1 °C 0 °C 1021.6 hPa SW 7.9 km/h 8 km/h 65% 0 mm 0.0 W/m2
04:29 6.1 °C 0.2 °C 1021.6 hPa SW 7.9 km/h 9.7 km/h 66% 0 mm 0.0 W/m2
04:34 6.3 °C 0.2 °C 1021.6 hPa SW 7.9 km/h 9.7 km/h 65% 0 mm 0.0 W/m2
04:39 6.3 °C 0 °C 1021.6 hPa Calm   6.4 km/h 64% 0 mm 0.0 W/m2
04:44 6.2 °C -0.1 °C 1021.9 hPa Calm     64% 0 mm 0.0 W/m2
04:50 6 °C -0.1 °C 1021.9 hPa Calm     65% 0 mm 0.0 W/m2
04:55 5.9 °C 0 °C 1021.9 hPa Calm     66% 0 mm 0.0 W/m2
05:00 5.9 °C 0 °C 1022.2 hPa Calm     66% 0 mm 0.0 W/m2
05:05 5.8 °C 0.1 °C 1022.2 hPa Calm     67% 0 mm 0.0 W/m2
05:10 5.7 °C -0.2 °C 1022.2 hPa Calm     66% 0 mm 0.0 W/m2
05:15 5.6 °C -0.3 °C 1022.2 hPa Calm     66% 0 mm 0.0 W/m2
05:21 5.4 °C -0.2 °C 1022.2 hPa Calm     67% 0 mm 0.0 W/m2
05:26 5.3 °C -0.7 °C 1022.2 hPa Calm     65% 0 mm 0.0 W/m2
05:31 5.1 °C -0.9 °C 1022.2 hPa Calm     65% 0 mm 0.0 W/m2
05:36 4.8 °C -0.6 °C 1022.2 hPa Calm     68% 0 mm 0.0 W/m2
05:42 5 °C -0.2 °C 1022.6 hPa Calm     69% 0 mm 0.0 W/m2
05:47 5 °C -0.2 °C 1022.6 hPa Calm     69% 0 mm 0.0 W/m2
05:52 5 °C -0.4 °C 1022.6 hPa Calm     68% 0 mm 0.0 W/m2
05:57 4.9 °C -0.5 °C 1022.6 hPa Calm     68% 0 mm 0.0 W/m2
06:02 4.7 °C -0.5 °C 1022.6 hPa Calm     69% 0 mm 0.0 W/m2
06:08 4.8 °C -0.2 °C 1022.6 hPa Calm     70% 0 mm 0.0 W/m2
06:14 4.9 °C -0.7 °C 1022.6 hPa Calm     67% 0 mm 0.0 W/m2
06:20 4.8 °C -0.8 °C 1022.6 hPa Calm     67% 0 mm 0.0 W/m2
06:30 4.3 °C -1.1 °C 1022.9 hPa Calm     68% 0 mm 7.0 W/m2
06:48 4.1 °C -1.1 °C 1023.2 hPa Calm     69% 0 mm 14.0 W/m2
06:58 3.9 °C -1.5 °C 1023.2 hPa Calm     68% 0 mm 19.0 W/m2
07:10 4.1 °C -1.3 °C 1023.2 hPa Calm     68% 0 mm 84.0 W/m2
07:24 5.8 °C -0.1 °C 1023.6 hPa Calm     66% 0 mm 141.0 W/m2
07:36 6.8 °C 0.2 °C 1023.6 hPa Calm     63% 0 mm 185.0 W/m2
07:51 8.8 °C 0.5 °C 1023.9 hPa Calm     56% 0 mm 241.0 W/m2
08:37 10.9 °C -0.3 °C 1023.9 hPa SW 4.7 km/h 6.4 km/h 46% 0 mm 371.0 W/m2
08:45 11.5 °C 0 °C 1023.9 hPa Calm     45% 0 mm 404.0 W/m2
09:05 12.3 °C -0.3 °C 1023.9 hPa Calm     42% 0 mm 459.0 W/m2
09:15 13 °C -0.3 °C 1023.9 hPa Calm     40% 0 mm 487.0 W/m2
09:26 13.4 °C 0.1 °C 1023.9 hPa Calm     40% 0 mm 510.0 W/m2
09:37 13.9 °C 0.2 °C 1023.9 hPa Calm     39% 0 mm 536.0 W/m2
10:19 16.8 °C 1.2 °C 1023.6 hPa Calm   4.8 km/h 35% 0 mm 612.0 W/m2
10:29 16.9 °C 1.3 °C 1023.6 hPa Calm     35% 0 mm 624.0 W/m2
10:37 17.1 °C 1.5 °C 1023.6 hPa Calm     35% 0 mm 638.0 W/m2
10:45 17.3 °C 1.3 °C 1023.2 hPa Calm   1.6 km/h 34% 0 mm 650.0 W/m2
10:51 17.4 °C 1.4 °C 1023.2 hPa Calm   6.4 km/h 34% 0 mm 656.0 W/m2
11:01 17.6 °C 1.5 °C 1023.2 hPa Calm   6.4 km/h 34% 0 mm 666.0 W/m2
11:15 17.8 °C 1.3 °C 1022.9 hPa Calm     33% 0 mm 675.0 W/m2
11:21 18 °C 1.5 °C 1022.9 hPa Calm     33% 0 mm 680.0 W/m2
11:26 18.2 °C 1.7 °C 1022.6 hPa Calm     33% 0 mm 682.0 W/m2
11:31 18.4 °C 1.8 °C 1022.6 hPa Calm   3.2 km/h 33% 0 mm 686.0 W/m2
11:36 18.6 °C 1.6 °C 1022.2 hPa Calm     32% 0 mm 687.0 W/m2
11:42 18.7 °C 1.7 °C 1022.2 hPa Calm     32% 0 mm 687.0 W/m2
11:48 19.1 °C 1.6 °C 1022.2 hPa Calm   4.8 km/h 31% 0 mm 687.0 W/m2
11:54 19.2 °C 1.7 °C 1022.2 hPa Calm   1.6 km/h 31% 0 mm 689.0 W/m2
12:05 19.3 °C 1.7 °C 1021.9 hPa Calm   9.7 km/h 31% 0 mm 687.0 W/m2
12:17 19.8 °C 1.7 °C 1021.6 hPa Calm     30% 0 mm 687.0 W/m2
12:30 19.8 °C 1.7 °C 1021.6 hPa Calm     30% 0 mm 680.0 W/m2
12:45 20.5 °C 1.9 °C 1021.2 hPa Calm     29% 0 mm 666.0 W/m2
12:57 20.4 °C 1.8 °C 1021.2 hPa Calm     29% 0 mm 652.0 W/m2
13:08 20.9 °C 1.7 °C 1020.9 hPa Calm     28% 0 mm 647.0 W/m2
13:24 21.5 °C 1.7 °C 1020.5 hPa Calm     27% 0 mm 624.0 W/m2
13:39 22.2 °C 1.8 °C 1020.5 hPa Calm     26% 0 mm 601.0 W/m2
13:50 22.1 °C 1.1 °C 1020.5 hPa Calm     25% 0 mm 580.0 W/m2
14:05 21.9 °C 1.5 °C 1020.2 hPa Calm     26% 0 mm 552.0 W/m2
14:13 22.3 °C 1.3 °C 1020.2 hPa Calm     25% 0 mm 531.0 W/m2
14:22 22.8 °C 1.7 °C 1019.9 hPa Calm     25% 0 mm 508.0 W/m2
14:29 22.7 °C 1.7 °C 1019.9 hPa Calm     25% 0 mm 494.0 W/m2
14:36 22.4 °C 1.4 °C 1019.9 hPa Calm     25% 0 mm 466.0 W/m2
14:48 22.4 °C 1.4 °C 1019.9 hPa Calm     25% 0 mm 439.0 W/m2
15:28 23.2 °C 0.9 °C 1019.5 hPa Calm     23% 0 mm 320.0 W/m2
15:45 23.3 °C 1 °C 1019.5 hPa Calm     23% 0 mm 288.0 W/m2
15:58 23.9 °C 1.5 °C 1019.5 hPa Calm     23% 0 mm 239.0 W/m2
16:08 23.6 °C 1.3 °C 1019.5 hPa Calm     23% 0 mm 206.0 W/m2
16:18 23.5 °C 1.2 °C 1019.5 hPa Calm     23% 0 mm 165.0 W/m2
16:27 23.5 °C 1.2 °C 1019.5 hPa Calm     23% 0 mm 128.0 W/m2
16:35 23.3 °C 1 °C 1019.5 hPa Calm     23% 0 mm 93.0 W/m2
16:40 23.3 °C 1 °C 1019.5 hPa Calm     23% 0 mm 77.0 W/m2
16:50 23.4 °C 1.1 °C 1019.5 hPa Calm     23% 0 mm 63.0 W/m2
17:01 23.4 °C 1.1 °C 1019.2 hPa Calm     23% 0 mm 39.0 W/m2
17:17 22.6 °C 1 °C 1019.5 hPa Calm     24% 0 mm 12.0 W/m2
17:31 21.3 °C 0.5 °C 1019.5 hPa SW 6.4 km/h 8 km/h 25% 0 mm 0.0 W/m2
17:41 20.7 °C 0 °C 1019.5 hPa Calm     25% 0 mm 0.0 W/m2
17:47 20.1 °C 0 °C 1019.5 hPa Calm     26% 0 mm 0.0 W/m2
18:03 19.1 °C -0.3 °C 1019.5 hPa Calm     27% 0 mm 0.0 W/m2
18:08 19.1 °C -0.3 °C 1019.5 hPa Calm     27% 0 mm 0.0 W/m2
18:18 18.2 °C -1.1 °C 1019.9 hPa Calm   1.6 km/h 27% 0 mm 0.0 W/m2
18:33 18.6 °C -1.3 °C 1019.9 hPa SW 4.7 km/h 8 km/h 26% 0 mm 0.0 W/m2
18:52 17.8 °C -1.5 °C 1020.2 hPa Calm   3.2 km/h 27% 0 mm 0.0 W/m2
18:58 17.3 °C -1.4 °C 1020.2 hPa SW 6.4 km/h 9.7 km/h 28% 0 mm 0.0 W/m2
19:09 17.2 °C -1.5 °C 1020.2 hPa Calm   6.4 km/h 28% 0 mm 0.0 W/m2
19:19 16.8 °C -1.3 °C 1020.5 hPa SW 4.7 km/h 8 km/h 29% 0 mm 0.0 W/m2
19:34 16.7 °C -1.4 °C 1020.5 hPa SW 4.7 km/h 9.7 km/h 29% 0 mm 0.0 W/m2
19:44 16.5 °C -1.6 °C 1020.5 hPa Calm     29% 0 mm 0.0 W/m2
20:00 16.2 °C -1.4 °C 1020.5 hPa Calm   9.7 km/h 30% 0 mm 0.0 W/m2
20:16 15.8 °C -1.3 °C 1020.5 hPa Calm     31% 0 mm 0.0 W/m2
20:37 15.2 °C -1.8 °C 1020.9 hPa Calm     31% 0 mm 0.0 W/m2
20:52 14.3 °C -1.8 °C 1020.9 hPa Calm     33% 0 mm 0.0 W/m2
21:02 13.9 °C -2.1 °C 1020.9 hPa Calm     33% 0 mm 0.0 W/m2
21:13 13.8 °C -1.8 °C 1020.9 hPa Calm     34% 0 mm 0.0 W/m2
21:28 13.3 °C -1.8 °C 1021.2 hPa Calm     35% 0 mm 0.0 W/m2
21:44 12.6 °C -2.1 °C 1021.2 hPa Calm     36% 0 mm 0.0 W/m2
21:56 12.1 °C -2.2 °C 1021.2 hPa Calm     37% 0 mm 0.0 W/m2
Canyon Roadhouse, Fishriver Canyon, Namibia
Compliments of Weather Underground - 2.25 mb